createdAt,value
2023-05-11T00:01:33.914Z,8.57
2023-05-11T00:04:00.936Z,7.78
2023-05-11T00:06:27.548Z,7.88
2023-05-11T00:08:58.944Z,8.25
2023-05-11T00:11:25.592Z,7.28
2023-05-11T00:13:52.417Z,7.47
2023-05-11T00:16:18.956Z,7.50
2023-05-11T00:18:45.661Z,7.45
2023-05-11T00:21:15.012Z,8.82
2023-05-11T00:23:41.751Z,7.18
2023-05-11T00:26:08.779Z,7.60
2023-05-11T00:28:35.445Z,8.40
2023-05-11T00:31:02.027Z,8.23
2023-05-11T00:33:29.616Z,8.68
2023-05-11T00:35:56.070Z,8.02
2023-05-11T00:38:22.503Z,8.55
2023-05-11T00:40:50.044Z,8.45
2023-05-11T00:43:17.184Z,8.27
2023-05-11T00:45:48.250Z,8.82
2023-05-11T00:48:16.008Z,8.55
2023-05-11T00:50:43.157Z,8.82
2023-05-11T00:53:10.077Z,8.20
2023-05-11T00:55:36.793Z,6.95
2023-05-11T00:58:05.724Z,7.95
2023-05-11T01:00:32.397Z,7.93
2023-05-11T01:03:01.360Z,7.78
2023-05-11T01:05:36.286Z,8.13
2023-05-11T01:08:14.200Z,8.20
2023-05-11T01:10:58.805Z,8.80
2023-05-11T01:13:37.550Z,8.52
2023-05-11T01:19:02.450Z,7.60
2023-05-11T01:21:34.360Z,7.93
2023-05-11T01:24:25.072Z,7.47
2023-05-11T01:27:18.654Z,8.13
2023-05-11T01:30:01.214Z,8.68
2023-05-11T01:32:33.229Z,8.60
2023-05-11T01:35:12.117Z,8.10
2023-05-11T01:37:43.719Z,9.70
2023-05-11T01:40:17.348Z,8.32
2023-05-11T01:43:04.795Z,9.63
2023-05-11T01:45:35.770Z,9.07
2023-05-11T01:48:09.472Z,9.38
2023-05-11T01:50:38.008Z,10.02
2023-05-11T01:53:06.276Z,10.15
2023-05-11T01:55:36.267Z,9.18
2023-05-11T01:58:06.549Z,9.30
2023-05-11T02:00:33.804Z,9.35
2023-05-11T02:03:02.124Z,9.75
2023-05-11T02:05:30.192Z,9.38
2023-05-11T02:07:58.310Z,9.57
2023-05-11T02:10:26.848Z,9.35
2023-05-11T02:12:54.818Z,8.82
2023-05-11T02:15:24.096Z,9.15
2023-05-11T02:17:52.980Z,9.80
2023-05-11T02:20:20.694Z,9.10
2023-05-11T02:22:48.829Z,9.95
2023-05-11T02:25:16.934Z,9.55
2023-05-11T02:27:43.693Z,9.40
2023-05-11T02:30:10.915Z,9.18
2023-05-11T02:32:41.332Z,9.88
2023-05-11T02:35:16.083Z,10.77
2023-05-11T02:37:46.669Z,10.38
2023-05-11T02:40:28.378Z,10.00
2023-05-11T02:43:00.493Z,9.77
2023-05-11T02:45:32.472Z,10.38
2023-05-11T02:48:03.735Z,11.10
2023-05-11T02:50:31.666Z,9.73
2023-05-11T02:53:01.443Z,8.55
2023-05-11T02:55:29.017Z,10.60
2023-05-11T02:57:55.849Z,10.38
2023-05-11T03:00:22.861Z,10.57
2023-05-11T03:02:50.057Z,9.57
2023-05-11T03:05:16.993Z,10.10
2023-05-11T03:07:43.988Z,10.15
2023-05-11T03:10:11.998Z,8.95
2023-05-11T03:12:39.037Z,8.70
2023-05-11T03:15:06.862Z,9.77
2023-05-11T03:17:34.554Z,9.73
2023-05-11T03:20:03.749Z,9.73
2023-05-11T03:22:31.797Z,9.68
2023-05-11T03:24:59.282Z,10.40
2023-05-11T03:27:27.500Z,10.32
2023-05-11T03:29:55.935Z,10.65
2023-05-11T03:32:23.023Z,10.70
2023-05-11T03:34:49.678Z,10.32
2023-05-11T03:37:18.608Z,9.77
2023-05-11T03:39:47.298Z,9.95
2023-05-11T03:42:20.536Z,9.73
2023-05-11T03:44:49.689Z,9.60
2023-05-11T03:47:20.834Z,9.35
2023-05-11T03:49:47.829Z,9.88
2023-05-11T03:52:15.241Z,10.57
2023-05-11T03:54:43.313Z,10.40
2023-05-11T03:57:11.140Z,9.30
2023-05-11T03:59:40.209Z,10.05
2023-05-11T04:02:07.715Z,8.10
2023-05-11T04:04:34.324Z,8.02
2023-05-11T04:07:01.063Z,8.15
2023-05-11T04:09:27.529Z,10.27
2023-05-11T04:11:54.361Z,9.10
2023-05-11T04:14:20.856Z,9.30
2023-05-11T04:16:47.512Z,9.18
2023-05-11T04:19:14.143Z,10.13
2023-05-11T04:21:40.702Z,8.82
2023-05-11T04:24:07.356Z,10.27
2023-05-11T04:26:33.867Z,10.27
2023-05-11T04:29:00.499Z,10.02
2023-05-11T04:31:27.102Z,10.82
2023-05-11T04:33:53.659Z,11.15
2023-05-11T04:36:20.556Z,10.40
2023-05-11T04:38:47.088Z,11.55
2023-05-11T04:41:15.181Z,10.68
2023-05-11T04:43:41.618Z,11.00
2023-05-11T04:46:08.106Z,11.48
2023-05-11T04:48:39.412Z,10.48
2023-05-11T04:51:06.321Z,10.60
2023-05-11T04:53:36.075Z,10.82
2023-05-11T04:56:04.230Z,10.55
2023-05-11T04:58:30.745Z,9.48
2023-05-11T05:00:57.237Z,10.98
2023-05-11T05:03:23.769Z,10.25
2023-05-11T05:05:50.786Z,10.98
2023-05-11T05:08:18.664Z,9.57
2023-05-11T05:10:45.434Z,9.80
2023-05-11T05:13:11.874Z,9.13
2023-05-11T05:15:38.338Z,8.98
2023-05-11T05:18:04.916Z,8.30
2023-05-11T05:20:31.777Z,9.90
2023-05-11T05:22:59.050Z,9.52
2023-05-11T05:25:25.801Z,8.93
2023-05-11T05:27:52.226Z,9.30
2023-05-11T05:30:19.055Z,9.57
2023-05-11T05:32:45.699Z,10.93
2023-05-11T05:35:12.237Z,9.38
2023-05-11T05:37:38.834Z,9.38
2023-05-11T05:40:06.312Z,9.23
2023-05-11T05:42:32.802Z,9.40
2023-05-11T05:44:59.309Z,8.65
2023-05-11T05:47:25.918Z,9.05
2023-05-11T05:49:52.409Z,9.57
2023-05-11T05:52:18.944Z,9.77
2023-05-11T05:54:45.537Z,9.00
2023-05-11T05:57:13.709Z,9.85
2023-05-11T05:59:41.477Z,8.45
2023-05-11T06:02:08.730Z,8.93
2023-05-11T06:04:35.390Z,9.48
2023-05-11T06:07:02.094Z,10.35
2023-05-11T06:09:28.800Z,9.57
2023-05-11T06:11:55.762Z,10.63
2023-05-11T06:14:22.685Z,8.73
2023-05-11T06:16:49.438Z,9.65
2023-05-11T06:19:16.386Z,8.48
2023-05-11T06:21:45.276Z,8.30
2023-05-11T06:24:12.097Z,9.20
2023-05-11T06:26:38.683Z,8.45
2023-05-11T06:29:05.135Z,8.15
2023-05-11T06:31:31.930Z,8.40
2023-05-11T06:33:58.457Z,9.00
2023-05-11T06:36:26.322Z,9.52
2023-05-11T06:38:52.746Z,8.05
2023-05-11T06:41:19.254Z,8.27
2023-05-11T06:43:45.754Z,8.10
2023-05-11T06:46:16.324Z,8.05
2023-05-11T06:48:43.003Z,8.30
2023-05-11T06:51:12.700Z,7.53
2023-05-11T06:53:39.444Z,7.75
2023-05-11T06:56:06.753Z,8.07
2023-05-11T06:58:33.265Z,9.05
2023-05-11T07:00:59.844Z,8.75
2023-05-11T07:03:26.784Z,8.77
2023-05-11T07:05:53.501Z,8.30
2023-05-11T07:08:20.369Z,9.48
2023-05-11T07:10:46.905Z,9.68
2023-05-11T07:13:14.172Z,9.77
2023-05-11T07:15:40.717Z,10.43
2023-05-11T07:18:08.871Z,10.23
2023-05-11T07:20:40.023Z,9.30
2023-05-11T07:23:07.070Z,7.15
2023-05-11T07:25:33.731Z,7.30
2023-05-11T07:28:00.203Z,7.75
2023-05-11T07:30:27.137Z,7.50
2023-05-11T07:32:53.788Z,6.57
2023-05-11T07:35:21.604Z,7.18
2023-05-11T07:37:49.328Z,7.68
2023-05-11T07:40:16.061Z,7.30
2023-05-11T07:42:42.597Z,6.07
2023-05-11T07:45:09.402Z,4.82
2023-05-11T07:47:37.011Z,4.20
2023-05-11T07:50:04.119Z,4.65
2023-05-11T07:52:30.617Z,3.95
2023-05-11T07:54:57.074Z,3.60
2023-05-11T07:57:23.548Z,4.35
2023-05-11T07:59:50.064Z,4.50
2023-05-11T08:02:16.628Z,4.55
2023-05-11T08:04:43.900Z,4.05
2023-05-11T08:07:10.774Z,3.42
2023-05-11T08:09:37.343Z,3.63
2023-05-11T08:12:03.971Z,3.83
2023-05-11T08:14:37.716Z,3.83
2023-05-11T08:17:04.238Z,3.80
2023-05-11T08:19:30.755Z,4.13
2023-05-11T08:21:57.201Z,4.22
2023-05-11T08:24:23.749Z,3.55
2023-05-11T08:26:50.417Z,3.47
2023-05-11T08:29:16.870Z,3.35
2023-05-11T08:31:44.696Z,2.63
2023-05-11T08:36:40.997Z,3.47
2023-05-11T08:39:07.441Z,3.33
2023-05-11T08:41:35.272Z,3.35
2023-05-11T08:44:03.328Z,3.08
2023-05-11T08:46:35.547Z,3.30
2023-05-11T08:49:02.344Z,4.32
2023-05-11T08:51:29.002Z,4.60
2023-05-11T08:53:57.680Z,4.75
2023-05-11T08:56:26.241Z,5.30
2023-05-11T08:58:56.185Z,3.63
2023-05-11T09:01:23.716Z,4.38
2023-05-11T09:03:51.735Z,4.20
2023-05-11T09:06:18.826Z,3.22
2023-05-11T09:08:46.378Z,3.78
2023-05-11T09:11:13.434Z,3.50
2023-05-11T09:13:40.077Z,3.13
2023-05-11T09:16:13.917Z,3.42
2023-05-11T09:18:51.574Z,3.60
2023-05-11T09:21:18.994Z,5.32
2023-05-11T09:23:49.462Z,4.55
2023-05-11T09:26:17.304Z,4.10
2023-05-11T09:29:02.356Z,4.63
2023-05-11T09:31:44.381Z,5.78
2023-05-11T09:34:15.733Z,5.05
2023-05-11T09:36:50.228Z,5.63
2023-05-11T09:39:35.049Z,4.93
2023-05-11T09:42:24.371Z,5.47
2023-05-11T09:44:50.933Z,4.95
2023-05-11T09:47:19.301Z,5.75
2023-05-11T09:49:47.122Z,6.38
2023-05-11T09:52:16.440Z,5.88
2023-05-11T09:54:45.251Z,5.60
2023-05-11T09:57:28.472Z,6.40
2023-05-11T09:59:56.575Z,7.35
2023-05-11T10:02:30.860Z,7.20
2023-05-11T10:04:59.792Z,7.60
2023-05-11T10:07:29.436Z,7.43
2023-05-11T10:09:58.185Z,7.20
2023-05-11T10:12:26.279Z,7.65
2023-05-11T10:14:58.031Z,7.47
2023-05-11T10:17:25.369Z,7.68
2023-05-11T10:19:54.437Z,7.70
2023-05-11T10:22:22.349Z,8.18
2023-05-11T10:24:50.804Z,6.72
2023-05-11T10:27:18.300Z,9.10
2023-05-11T10:29:45.873Z,10.77
2023-05-11T10:32:13.487Z,11.05
2023-05-11T10:34:42.206Z,10.98
2023-05-11T10:37:09.092Z,11.63
2023-05-11T10:39:39.885Z,10.60
2023-05-11T10:42:14.414Z,10.68
2023-05-11T10:45:07.037Z,9.50
2023-05-11T10:47:42.709Z,8.45
2023-05-11T10:50:28.004Z,7.72
2023-05-11T10:53:30.589Z,6.18
2023-05-11T10:56:03.163Z,5.85
2023-05-11T10:58:43.833Z,6.65
2023-05-11T11:01:26.927Z,6.00
2023-05-11T11:04:03.053Z,5.85
2023-05-11T11:06:29.712Z,6.65
2023-05-11T11:09:04.444Z,5.72
2023-05-11T11:11:39.278Z,5.38
2023-05-11T11:14:06.999Z,5.93
2023-05-11T11:16:34.781Z,5.25
2023-05-11T11:19:32.744Z,4.32
2023-05-11T11:22:01.209Z,4.30
2023-05-11T11:24:37.268Z,4.63
2023-05-11T11:27:05.150Z,4.57
2023-05-11T11:29:31.882Z,5.07
2023-05-11T11:32:20.277Z,5.80
2023-05-11T11:34:48.241Z,5.63
2023-05-11T11:37:16.608Z,5.70
2023-05-11T11:39:43.037Z,5.68
2023-05-11T11:42:15.123Z,4.30
2023-05-11T11:44:43.407Z,4.93
2023-05-11T11:47:23.056Z,5.03
2023-05-11T11:49:52.158Z,4.57
2023-05-11T11:52:28.012Z,4.55
2023-05-11T11:55:01.912Z,6.15
2023-05-11T11:57:34.393Z,5.53
2023-05-11T12:00:05.734Z,7.22
2023-05-11T12:02:33.786Z,6.30
2023-05-11T12:05:07.038Z,6.30
2023-05-11T12:07:34.271Z,6.22
2023-05-11T12:10:04.126Z,6.30
2023-05-11T12:12:31.311Z,5.53
2023-05-11T12:14:59.868Z,6.15
2023-05-11T12:17:29.671Z,5.57
2023-05-11T12:20:12.440Z,6.07
2023-05-11T12:22:39.058Z,6.43
2023-05-11T12:25:06.632Z,5.35
2023-05-11T12:27:33.089Z,5.30
2023-05-11T12:30:00.339Z,4.75
2023-05-11T12:32:31.280Z,4.63
2023-05-11T12:35:00.957Z,5.30
2023-05-11T12:37:29.320Z,5.05
2023-05-11T12:39:56.598Z,5.35
2023-05-11T12:42:23.678Z,4.97
2023-05-11T12:44:51.033Z,4.78
2023-05-11T12:47:17.815Z,5.38
2023-05-11T12:49:44.647Z,5.20
2023-05-11T12:52:13.534Z,4.90
2023-05-11T12:54:43.436Z,5.63
2023-05-11T12:57:24.540Z,5.03
2023-05-11T13:00:12.004Z,4.85
2023-05-11T13:02:44.707Z,4.75
2023-05-11T13:05:13.130Z,6.25
2023-05-11T13:07:39.719Z,6.00
2023-05-11T13:10:06.861Z,6.22
2023-05-11T13:12:34.481Z,6.40
2023-05-11T13:15:12.745Z,6.40
2023-05-11T13:17:41.882Z,6.95
2023-05-11T13:20:27.493Z,7.25
2023-05-11T13:23:05.422Z,6.30
2023-05-11T13:25:36.461Z,6.25
2023-05-11T13:28:04.023Z,6.10
2023-05-11T13:30:32.751Z,5.82
2023-05-11T13:33:01.106Z,6.00
2023-05-11T13:35:27.717Z,5.45
2023-05-11T13:37:54.158Z,6.25
2023-05-11T13:40:21.045Z,5.50
2023-05-11T13:42:48.533Z,2.83
2023-05-11T13:45:14.999Z,1.83
2023-05-11T13:47:43.246Z,1.77
2023-05-11T13:50:12.068Z,1.48
2023-05-11T13:52:40.617Z,1.77
2023-05-11T13:55:07.723Z,1.35
2023-05-11T13:57:34.415Z,1.50
2023-05-11T14:00:01.054Z,1.30
2023-05-11T14:02:27.951Z,1.38
2023-05-11T14:04:54.533Z,1.90
2023-05-11T14:07:22.785Z,1.50
2023-05-11T14:09:54.304Z,1.90
2023-05-11T14:12:20.773Z,1.60
2023-05-11T14:14:47.192Z,1.90
2023-05-11T14:17:13.886Z,1.35
2023-05-11T14:19:40.425Z,1.70
2023-05-11T14:22:07.139Z,1.77
2023-05-11T14:24:33.864Z,1.52
2023-05-11T14:27:00.441Z,1.70
2023-05-11T14:29:27.174Z,2.30
2023-05-11T14:31:53.634Z,1.60
2023-05-11T14:34:20.264Z,1.63
2023-05-11T14:36:46.695Z,1.83
2023-05-11T14:39:13.127Z,1.88
2023-05-11T14:41:39.877Z,1.92
2023-05-11T14:44:06.431Z,1.45
2023-05-11T14:46:32.970Z,2.03
2023-05-11T14:48:59.386Z,1.88
2023-05-11T14:51:25.929Z,1.90
2023-05-11T14:53:52.415Z,2.15
2023-05-11T14:56:18.939Z,2.30
2023-05-11T14:58:46.117Z,2.30
2023-05-11T15:01:12.576Z,1.98
2023-05-11T15:03:39.140Z,2.58
2023-05-11T15:06:05.909Z,2.47
2023-05-11T15:08:32.513Z,2.55
2023-05-11T15:10:59.196Z,2.13
2023-05-11T15:13:27.152Z,2.30
2023-05-11T15:15:53.731Z,2.17
2023-05-11T15:18:20.464Z,2.55
2023-05-11T15:20:46.962Z,2.67
2023-05-11T15:23:16.713Z,2.00
2023-05-11T15:25:44.633Z,2.30
2023-05-11T15:28:11.581Z,2.80
2023-05-11T15:30:38.516Z,2.53
2023-05-11T15:33:04.993Z,2.10
2023-05-11T15:35:31.808Z,2.38
2023-05-11T15:37:58.249Z,1.92
2023-05-11T15:40:24.897Z,2.45
2023-05-11T15:42:51.458Z,2.38
2023-05-11T15:45:18.227Z,1.95
2023-05-11T15:47:46.142Z,1.98
2023-05-11T15:50:13.003Z,1.63
2023-05-11T15:52:42.347Z,1.10
2023-05-11T15:55:09.509Z,1.10
2023-05-11T15:57:36.457Z,0.90
2023-05-11T16:00:05.810Z,0.80
2023-05-11T16:02:32.313Z,1.23
2023-05-11T16:04:58.897Z,2.20
2023-05-11T16:07:27.089Z,1.33
2023-05-11T16:09:53.728Z,1.40
2023-05-11T16:12:20.266Z,1.65
2023-05-11T16:14:52.451Z,2.40
2023-05-11T16:17:18.987Z,1.92
2023-05-11T16:19:45.457Z,2.33
2023-05-11T16:22:12.164Z,1.67
2023-05-11T16:24:38.886Z,1.45
2023-05-11T16:27:05.720Z,1.50
2023-05-11T16:29:32.423Z,1.55
2023-05-11T16:31:59.005Z,1.30
2023-05-11T16:34:25.680Z,1.67
2023-05-11T16:36:52.911Z,1.30
2023-05-11T16:39:19.345Z,1.23
2023-05-11T16:41:45.732Z,1.35
2023-05-11T16:44:12.179Z,1.30
2023-05-11T16:46:39.005Z,1.55
2023-05-11T16:49:05.606Z,1.70
2023-05-11T16:51:32.503Z,1.33
2023-05-11T16:53:59.010Z,1.80
2023-05-11T16:56:25.785Z,1.70
2023-05-11T16:58:52.518Z,1.80
2023-05-11T17:01:19.146Z,2.58
2023-05-11T17:03:45.805Z,2.13
2023-05-11T17:06:14.953Z,2.22
2023-05-11T17:08:41.966Z,3.58
2023-05-11T17:11:08.687Z,2.75
2023-05-11T17:13:35.178Z,1.80
2023-05-11T17:16:02.364Z,0.80
2023-05-11T17:18:29.250Z,1.40
2023-05-11T17:20:56.132Z,0.80
2023-05-11T17:23:24.749Z,0.93
2023-05-11T17:25:51.839Z,0.73
2023-05-11T17:28:18.624Z,1.13
2023-05-11T17:30:48.469Z,1.48
2023-05-11T17:33:16.039Z,1.45
2023-05-11T17:35:43.132Z,0.73
2023-05-11T17:38:10.009Z,1.02
2023-05-11T17:40:36.514Z,0.90
2023-05-11T17:43:05.176Z,0.93
2023-05-11T17:45:31.666Z,1.20
2023-05-11T17:47:58.264Z,1.25
2023-05-11T17:50:24.783Z,0.80
2023-05-11T17:52:51.479Z,0.73
2023-05-11T17:55:18.303Z,0.88
2023-05-11T17:57:45.041Z,0.73
2023-05-11T18:00:12.562Z,0.70
2023-05-11T18:02:39.300Z,0.80
2023-05-11T18:05:07.227Z,0.85
2023-05-11T18:07:33.917Z,0.60
2023-05-11T18:10:00.424Z,0.95
2023-05-11T18:12:27.032Z,0.77
2023-05-11T18:14:53.541Z,1.48
2023-05-11T18:17:20.014Z,2.10
2023-05-11T18:19:46.488Z,2.50
2023-05-11T18:22:13.064Z,2.13
2023-05-11T18:24:39.486Z,2.92
2023-05-11T18:27:06.075Z,2.40
2023-05-11T18:29:32.786Z,2.70
2023-05-11T18:31:59.293Z,2.92
2023-05-11T18:34:26.361Z,3.08
2023-05-11T18:36:53.175Z,3.28
2023-05-11T18:39:20.339Z,3.85
2023-05-11T18:41:47.408Z,3.53
2023-05-11T18:44:15.213Z,3.38
2023-05-11T18:46:43.009Z,3.45
2023-05-11T18:49:09.531Z,3.55
2023-05-11T18:51:36.001Z,3.28
2023-05-11T18:54:02.862Z,3.58
2023-05-11T18:56:29.782Z,3.25
2023-05-11T18:58:56.183Z,3.63
2023-05-11T19:01:27.882Z,3.55
2023-05-11T19:03:59.866Z,3.42
2023-05-11T19:06:26.571Z,2.80
2023-05-11T19:08:55.204Z,3.00
2023-05-11T19:11:22.792Z,2.88
2023-05-11T19:13:50.456Z,3.25
2023-05-11T19:16:16.957Z,3.92
2023-05-11T19:18:43.514Z,3.58
2023-05-11T19:21:10.746Z,4.25
2023-05-11T19:23:39.974Z,4.20
2023-05-11T19:26:06.564Z,4.03
2023-05-11T19:28:32.996Z,3.67
2023-05-11T19:31:01.730Z,3.92
2023-05-11T19:33:28.716Z,4.22
2023-05-11T19:35:55.371Z,4.18
2023-05-11T19:38:22.006Z,4.07
2023-05-11T19:40:48.750Z,4.22
2023-05-11T19:43:15.682Z,4.00
2023-05-11T19:45:44.159Z,4.15
2023-05-11T19:48:14.759Z,4.25
2023-05-11T19:50:41.381Z,4.82
2023-05-11T19:53:08.273Z,3.95
2023-05-11T19:55:34.868Z,4.57
2023-05-11T19:58:02.018Z,3.92
2023-05-11T20:00:31.587Z,4.35
2023-05-11T20:02:58.885Z,4.18
2023-05-11T20:05:25.476Z,4.53
2023-05-11T20:07:51.968Z,4.35
2023-05-11T20:10:18.705Z,4.78
2023-05-11T20:12:45.422Z,4.35
2023-05-11T20:15:12.004Z,4.30
2023-05-11T20:17:41.144Z,4.72
2023-05-11T20:20:08.745Z,4.90
2023-05-11T20:22:36.714Z,4.93
2023-05-11T20:25:13.929Z,5.25
2023-05-11T20:27:44.673Z,4.88
2023-05-11T20:30:11.661Z,4.68
2023-05-11T20:32:38.534Z,4.03
2023-05-11T20:35:05.766Z,3.53
2023-05-11T20:37:32.353Z,3.30
2023-05-11T20:39:58.885Z,2.80
2023-05-11T20:42:26.533Z,2.67
2023-05-11T20:44:53.637Z,2.38
2023-05-11T20:47:20.299Z,2.13
2023-05-11T20:49:47.865Z,2.25
2023-05-11T20:52:14.358Z,2.65
2023-05-11T20:54:41.087Z,2.88
2023-05-11T20:57:08.380Z,2.58
2023-05-11T21:02:04.641Z,2.40
2023-05-11T21:04:31.592Z,2.90
2023-05-11T21:06:58.192Z,2.75
2023-05-11T21:09:25.377Z,2.35
2023-05-11T21:11:51.972Z,3.17
2023-05-11T21:14:18.488Z,3.15
2023-05-11T21:16:50.083Z,3.30
2023-05-11T21:19:16.814Z,2.95
2023-05-11T21:21:43.387Z,3.20
2023-05-11T21:24:09.997Z,3.30
2023-05-11T21:26:36.478Z,3.25
2023-05-11T21:29:02.912Z,3.05
2023-05-11T21:31:29.454Z,3.08
2023-05-11T21:33:56.146Z,3.95
2023-05-11T21:36:22.753Z,3.53
2023-05-11T21:38:49.240Z,3.22
2023-05-11T21:41:16.862Z,3.40
2023-05-11T21:43:43.415Z,3.40
2023-05-11T21:46:10.029Z,3.42
2023-05-11T21:48:36.504Z,2.83
2023-05-11T21:51:03.571Z,3.08
2023-05-11T21:53:30.167Z,3.50
2023-05-11T21:55:58.070Z,3.75
2023-05-11T21:58:24.518Z,2.67
2023-05-11T22:00:50.927Z,3.40
2023-05-11T22:03:19.354Z,3.28
2023-05-11T22:05:46.190Z,3.67
2023-05-11T22:08:15.344Z,3.33
2023-05-11T22:10:43.067Z,3.40
2023-05-11T22:13:09.800Z,3.47
2023-05-11T22:15:37.291Z,3.85
2023-05-11T22:18:05.236Z,4.07
2023-05-11T22:20:34.308Z,3.92
2023-05-11T22:23:03.759Z,4.60
2023-05-11T22:25:30.237Z,5.57
2023-05-11T22:27:57.009Z,4.32
2023-05-11T22:30:23.487Z,3.85
2023-05-11T22:32:50.069Z,4.75
2023-05-11T22:35:16.814Z,4.72
2023-05-11T22:37:43.465Z,4.07
2023-05-11T22:40:25.086Z,4.00
2023-05-11T22:42:53.190Z,3.95
2023-05-11T22:45:19.593Z,4.05
2023-05-11T22:47:46.088Z,4.10
2023-05-11T22:50:12.629Z,3.70
2023-05-11T22:52:39.467Z,3.72
2023-05-11T22:55:06.760Z,3.25
2023-05-11T22:57:33.566Z,3.33
2023-05-11T23:00:00.376Z,3.38
2023-05-11T23:02:26.870Z,4.20
2023-05-11T23:04:53.379Z,3.35
2023-05-11T23:07:20.045Z,3.75
2023-05-11T23:09:49.767Z,3.60
2023-05-11T23:12:16.321Z,3.17
2023-05-11T23:14:43.851Z,3.72
2023-05-11T23:17:10.396Z,2.85
2023-05-11T23:19:37.154Z,3.80
2023-05-11T23:22:03.818Z,3.03
2023-05-11T23:24:30.590Z,2.80
2023-05-11T23:26:57.139Z,2.95
2023-05-11T23:29:24.377Z,2.88
2023-05-11T23:31:51.117Z,2.70
2023-05-11T23:34:18.024Z,2.85
2023-05-11T23:36:44.628Z,2.97
2023-05-11T23:39:11.238Z,2.63
2023-05-11T23:41:37.915Z,2.85
2023-05-11T23:44:04.421Z,2.75
2023-05-11T23:46:32.623Z,2.50
2023-05-11T23:49:02.404Z,2.85
2023-05-11T23:51:28.906Z,2.90
2023-05-11T23:53:55.449Z,3.22
2023-05-11T23:56:22.210Z,2.80
2023-05-11T23:58:50.478Z,3.00
